Flight Track Log - Related Links

Times and Time Zones

All times are in EDT time to prevent confusion due to time zone crossing. See the N516QS flight status page for this flight to view local times or setup timezone preferences in your user account.

Time Position Orientation Groundspeed Altitude Reporting Facility
EDT Latitude Longitude Course Direction KTS MPH feet Rate Location/Type
Wed 01:46:08 PM 44.8358 -68.9564 272° West 225 259 6,500  Level Boston Center
Wed 01:47:08 PM 44.8353 -69.0794 270° West 256 295 10,900 3,500 Climbing Boston Center
Wed 01:48:08 PM 44.8328 -69.2056 268° West 295 339 13,500 2,591 Climbing Boston Center
Wed 01:49:20 PM 44.8303 -69.3403 269° West 332 382 16,600 2,636 Climbing Boston Center
Wed 01:50:00 PM 44.8167 -69.7717 270° West  Level FlightAware Approximate
Wed 01:50:20 PM 44.8281 -69.4956 269° West 353 406 19,300  Level Boston Center
Wed 01:51:20 PM 44.8233 -69.6450 268° West 375 432 22,200 1,850 Climbing Boston Center
Wed 01:52:20 PM 44.8058 -69.7892 260° West 387 445 23,000 1,300 Climbing Boston Center
Wed 01:53:20 PM 44.7719 -69.9486 253° West 400 460 24,800 1,950 Climbing Boston Center
Wed 01:54:20 PM 44.7356 -70.1053 252° West 414 476 26,900 2,500 Climbing Boston Center
Wed 01:55:20 PM 44.6992 -70.2672 253° West 432 497 29,800 2,850 Climbing Boston Center
Wed 01:56:20 PM 44.6644 -70.4203 252° West 432 497 32,600 2,700 Climbing Boston Center
Wed 01:57:20 PM 44.6294 -70.5733 252° West 425 489 35,200 2,450 Climbing Boston Center
Wed 01:58:20 PM 44.5944 -70.7172 251° West 414 476 37,500 2,050 Climbing Boston Center
Wed 01:59:20 PM 44.5611 -70.8639 252° West 407 468 39,300 1,600 Climbing Boston Center
Wed 02:00:20 PM 44.5253 -71.0106 251° West 407 468 40,700 1,250 Climbing Boston Center
Wed 02:01:20 PM 44.4978 -71.1303 252° West 407 468 41,800 1,150 Climbing Boston Center
Wed 02:02:20 PM 44.4558 -71.3117 252° West 397 457 43,000 600 Climbing Boston Center
Wed 02:03:20 PM 44.4217 -71.4606 252° West 397 457 43,000  Level Boston Center
Wed 02:04:20 PM 44.3856 -71.6122 252° West 408 470 43,000  Level Boston Center
Wed 02:05:20 PM 44.3469 -71.7667 251° West 413 475 43,000  Level Boston Center
Wed 02:06:20 PM 44.3081 -71.9178 250° West 418 481 43,000  Level Boston Center
Wed 02:07:20 PM 44.2692 -72.0719 251° West 418 481 43,000  Level Boston Center
Wed 02:08:20 PM 44.2319 -72.2228 251° West 418 481 43,000  Level Boston Center
Wed 02:09:20 PM 44.1925 -72.3764 250° West 424 488 43,000  Level Boston Center
Wed 02:10:20 PM 44.1550 -72.5269 251° West 424 488 43,000  Level Boston Center
Wed 02:11:20 PM 44.1172 -72.6831 251° West 424 488 43,000  Level Boston Center
Wed 02:12:20 PM 44.0794 -72.8361 251° West 424 488 43,000  Level Boston Center
Wed 02:13:20 PM 44.0411 -72.9889 251° West 424 488 43,000  Level Boston Center
Wed 02:14:20 PM 44.0050 -73.1269 250° West 432 497 43,000  Level Boston Center
Wed 02:15:20 PM 43.9644 -73.2794 250° West 427 491 43,000  Level Boston Center
Wed 02:16:20 PM 43.9258 -73.4317 251° West 427 491 43,000  Level Boston Center
Wed 02:17:20 PM 43.8869 -73.5808 250° West 427 491 43,000  Level Boston Center
Wed 02:18:20 PM 43.8478 -73.7328 250° West 427 491 43,000  Level Boston Center
Wed 02:19:20 PM 43.8042 -73.8958 250° West 422 486 43,000  Level Boston Center
Wed 02:20:20 PM 43.7644 -74.0472 250° West 427 491 43,000  Level Boston Center
Wed 02:21:20 PM 43.7228 -74.2011 250° West 427 491 43,000  Level Boston Center
Wed 02:22:20 PM 43.6828 -74.3550 250° West 427 491 43,000  Level Boston Center
Wed 02:23:20 PM 43.6406 -74.5058 249° West 427 491 43,000  Level Boston Center
Wed 02:24:32 PM 43.6003 -74.6564 250° West 427 491 43,000  Level Boston Center
Wed 02:25:32 PM 43.5550 -74.8236 250° West 434 499 43,000  Level Boston Center
Wed 02:26:32 PM 43.5214 -74.9456 249° West 429 494 43,000  Level Boston Center
Wed 02:27:32 PM 43.4733 -75.1294 250° West 429 494 43,000  Level Boston Center
Wed 02:28:32 PM 43.4211 -75.3017 247° West 429 494 43,000  Level Boston Center
Wed 02:29:32 PM 43.3842 -75.4456 251° West 442 509 43,000  Level Boston Center
Wed 02:31:31 PM 43.2969 -75.7419 248° West 419 482 43,000  Level Cleveland Center
Wed 02:32:31 PM 43.2531 -75.8908 248° West 419 482 43,000  Level Cleveland Center
Wed 02:33:31 PM 43.2108 -76.0392 249° West 419 482 43,000  Level Cleveland Center
Wed 02:34:31 PM 43.1667 -76.1878 248° West 419 482 43,000  Level Cleveland Center
Wed 02:35:31 PM 43.1200 -76.3361 247° West 419 482 43,000  Level Cleveland Center
Wed 02:36:31 PM 43.0753 -76.4842 248° West 424 488 43,000  Level Cleveland Center
Wed 02:37:31 PM 43.0261 -76.6297 245° Southwest 424 488 43,000  Level Cleveland Center
Wed 02:38:31 PM 42.9753 -76.7917 247° West 424 488 43,000  Level Cleveland Center
Wed 02:39:31 PM 42.9281 -76.9364 246° West 424 488 43,000  Level Cleveland Center
Wed 02:40:31 PM 42.8803 -77.0811 246° West 424 488 43,000  Level Cleveland Center
Wed 02:41:31 PM 42.8325 -77.2281 246° West 424 488 43,000  Level Cleveland Center
Wed 02:42:31 PM 42.7867 -77.3719 247° West 424 488 43,000  Level Cleveland Center
Wed 02:43:31 PM 42.7364 -77.5217 245° Southwest 424 488 43,000  Level Cleveland Center
Wed 02:44:31 PM 42.6942 -77.6564 247° West 430 495 43,000  Level Cleveland Center
Wed 02:45:31 PM 42.6433 -77.8000 244° Southwest 430 495 43,000  Level Cleveland Center
Wed 02:46:31 PM 42.5928 -77.9544 246° West 435 501 43,000  Level Cleveland Center
Wed 02:47:31 PM 42.5439 -78.0975 245° Southwest 435 501 43,000  Level Cleveland Center
Wed 02:48:31 PM 42.4947 -78.2431 245° Southwest 429 494 43,000  Level Cleveland Center
Wed 02:49:31 PM 42.4456 -78.3883 245° Southwest 429 494 43,000  Level Cleveland Center
Wed 02:50:31 PM 42.3961 -78.5364 246° West 429 494 43,000  Level Cleveland Center
Wed 02:51:31 PM 42.3444 -78.6814 244° Southwest 429 494 43,000  Level Cleveland Center
Wed 02:52:31 PM 42.2947 -78.8231 245° Southwest 429 494 43,000  Level Cleveland Center
Wed 02:53:31 PM 42.2386 -78.9844 245° Southwest 429 494 43,000  Level Cleveland Center
Wed 02:54:31 PM 42.1883 -79.1289 245° Southwest 429 494 43,000  Level Cleveland Center
Wed 02:55:31 PM 42.1422 -79.2811 248° West 429 494 43,000  Level Cleveland Center
Wed 02:56:31 PM 42.0833 -79.4194 240° Southwest 429 494 43,000  Level Cleveland Center
Wed 02:57:31 PM 42.0303 -79.5406 239° Southwest 429 494 43,000  Level Cleveland Center
Wed 02:58:31 PM 41.9689 -79.6783 239° Southwest 429 494 43,000  Level Cleveland Center
Wed 02:59:31 PM 41.9011 -79.8272 239° Southwest 429 494 43,000  Level Cleveland Center
Wed 03:00:31 PM 41.8478 -79.9533 240° Southwest 429 494 43,000  Level Cleveland Center
Wed 03:01:31 PM 41.7881 -80.0903 240° Southwest 429 494 43,000  Level Cleveland Center
Wed 03:02:31 PM 41.7258 -80.2242 238° Southwest 423 487 43,000  Level Cleveland Center
Wed 03:03:31 PM 41.6658 -80.3581 239° Southwest 431 496 43,000  Level Cleveland Center
Wed 03:04:31 PM 41.6056 -80.4942 239° Southwest 426 490 43,000  Level Cleveland Center
Wed 03:05:31 PM 41.5453 -80.6275 239° Southwest 426 490 43,000  Level Cleveland Center
Wed 03:06:31 PM 41.4783 -80.7717 238° Southwest 426 490 43,000  Level Cleveland Center
Wed 03:07:31 PM 41.4197 -80.9042 239° Southwest 426 490 43,000  Level Cleveland Center
Wed 03:08:31 PM 41.3567 -81.0394 238° Southwest 426 490 43,000  Level Cleveland Center
Wed 03:09:31 PM 41.2956 -81.1744 239° Southwest 426 490 43,000  Level Cleveland Center
Wed 03:10:31 PM 41.2322 -81.3064 237° Southwest 426 490 43,000  Level Cleveland Center
Wed 03:11:31 PM 41.1792 -81.4300 240° Southwest 426 490 43,000  Level Cleveland Center
Wed 03:12:31 PM 41.1094 -81.5669 236° Southwest 436 502 43,000  Level Cleveland Center
Wed 03:13:31 PM 41.0433 -81.7092 238° Southwest 452 520 43,000  Level Cleveland Center
Wed 03:14:31 PM 40.9836 -81.8428 239° Southwest 445 512 43,000  Level Cleveland Center
Wed 03:15:31 PM 40.9175 -81.9844 238° Southwest 433 498 43,000  Level Cleveland Center
Wed 03:16:31 PM 40.8553 -82.1178 238° Southwest 428 493 43,000  Level Cleveland Center
Wed 03:17:18 PM 40.8069 -82.2219 239° Southwest 430 495 43,000  Level Indianapolis Center
Wed 03:18:20 PM 40.7436 -82.3556 238° Southwest 427 491 43,000  Level Indianapolis Center
Wed 03:19:22 PM 40.6803 -82.4886 238° Southwest 425 489 43,000  Level Indianapolis Center
Wed 03:20:24 PM 40.6167 -82.6206 238° Southwest 425 489 43,000  Level Indianapolis Center
Wed 03:21:26 PM 40.5522 -82.7536 238° Southwest 425 489 43,000  Level Indianapolis Center
Wed 03:22:29 PM 40.4811 -82.9003 238° Southwest 429 494 43,000  Level Indianapolis Center
Wed 03:23:30 PM 40.4161 -83.0336 237° Southwest 430 495 43,000  Level Indianapolis Center
Wed 03:24:32 PM 40.3503 -83.1689 237° Southwest 436 502 43,000  Level Indianapolis Center
Wed 03:25:34 PM 40.2836 -83.3044 237° Southwest 439 505 43,000  Level Indianapolis Center
Wed 03:26:36 PM 40.2175 -83.4397 237° Southwest 440 506 43,000  Level Indianapolis Center
Wed 03:27:38 PM 40.1514 -83.5756 238° Southwest 441 507 43,000  Level Indianapolis Center
Wed 03:28:40 PM 40.0733 -83.7325 237° Southwest 442 509 43,000  Level Indianapolis Center
Wed 03:29:42 PM 40.0064 -83.8647 237° Southwest 439 505 43,000  Level Indianapolis Center
Wed 03:30:44 PM 39.9392 -83.9956 236° Southwest 435 501 43,000  Level Indianapolis Center
Wed 03:31:46 PM 39.8742 -84.1258 237° Southwest 430 495 43,000  Level Indianapolis Center
Wed 03:32:48 PM 39.8078 -84.2564 237° Southwest 431 496 43,000  Level Indianapolis Center
Wed 03:33:50 PM 39.7422 -84.3861 237° Southwest 428 493 43,000  Level Indianapolis Center
Wed 03:34:52 PM 39.6647 -84.5358 236° Southwest 427 491 43,000  Level Indianapolis Center
Wed 03:35:54 PM 39.5997 -84.6653 237° Southwest 425 489 43,000  Level Indianapolis Center
Wed 03:36:56 PM 39.5347 -84.7925 237° Southwest 423 487 43,000  Level Indianapolis Center
Wed 03:37:58 PM 39.4664 -84.9219 236° Southwest 419 482 43,000  Level Indianapolis Center
Wed 03:39:00 PM 39.4008 -85.0478 236° Southwest 421 484 43,000  Level Indianapolis Center
Wed 03:40:02 PM 39.3356 -85.1747 236° Southwest 426 490 43,000  Level Indianapolis Center
Wed 03:41:04 PM 39.2700 -85.2986 236° Southwest 419 482 43,000  Level Indianapolis Center
Wed 03:42:06 PM 39.2058 -85.4217 236° Southwest 414 476 43,000  Level Indianapolis Center
Wed 03:43:08 PM 39.1400 -85.5442 235° Southwest 416 479 43,000  Level Indianapolis Center
Wed 03:44:10 PM 39.0617 -85.6933 236° Southwest 418 481 43,000  Level Indianapolis Center
Wed 03:45:11 PM 38.9967 -85.8156 236° Southwest 416 479 43,000  Level Indianapolis Center
Wed 03:46:13 PM 38.9319 -85.9375 236° Southwest 414 476 43,000  Level Indianapolis Center
Wed 03:47:15 PM 38.8636 -86.0650 235° Southwest 416 479 43,000  Level Indianapolis Center
Wed 03:48:17 PM 38.7981 -86.1869 235° Southwest 414 476 43,000  Level Indianapolis Center
Wed 03:49:19 PM 38.7331 -86.3067 235° Southwest 410 472 43,000  Level Indianapolis Center
Wed 03:50:21 PM 38.6683 -86.4258 235° Southwest 406 467 43,000  Level Indianapolis Center
Wed 03:51:23 PM 38.6039 -86.5456 235° Southwest 407 468 43,000  Level Indianapolis Center
Wed 03:52:25 PM 38.5256 -86.6881 235° Southwest 407 468 43,000  Level Indianapolis Center
Wed 03:53:27 PM 38.4603 -86.8078 235° Southwest 409 471 43,000  Level Indianapolis Center
Wed 03:54:29 PM 38.3967 -86.9231 235° Southwest 417 480 43,000  Level Indianapolis Center
Wed 03:55:31 PM 38.3317 -87.0417 235° Southwest 418 481 43,000 49 Level Indianapolis Center
Wed 03:56:32 PM 38.2675 -87.1586 235° Southwest 409 471 43,100 195 Climbing Indianapolis Center
Wed 03:57:34 PM 38.1875 -87.3017 235° Southwest 416 479 43,400 410 Climbing Indianapolis Center
Wed 03:59:00 PM 38.0874 -87.4680 233° Southwest  Level FlightAware Approximate
Wed 04:00:26 PM 37.9875 -87.6556 233° Southwest 417 480 44,700  Level Memphis Center
Wed 04:01:26 PM 37.9131 -87.7686 230° Southwest 424 488 45,000 150 Climbing Memphis Center
Wed 04:02:26 PM 37.8039 -87.8247 202° Southwest 424 488 45,000  Level Memphis Center
Wed 04:03:26 PM 37.6964 -87.8753 200° South 410 472 45,000  Level Memphis Center
Wed 04:04:26 PM 37.5892 -87.9283 201° Southwest 415 478 45,000  Level Memphis Center
Wed 04:05:26 PM 37.4800 -87.9814 201° Southwest 420 483 45,000  Level Memphis Center
Wed 04:06:26 PM 37.3814 -88.0653 214° Southwest 420 483 45,000  Level Memphis Center
Wed 04:07:26 PM 37.2914 -88.1564 219° Southwest 420 483 45,000  Level Memphis Center
Wed 04:08:26 PM 37.1972 -88.2478 218° Southwest 430 495 45,000  Level Memphis Center
Wed 04:09:26 PM 37.1050 -88.3358 217° Southwest 430 495 45,000  Level Memphis Center
Wed 04:10:26 PM 37.0106 -88.4267 218° Southwest 430 495 45,000  Level Memphis Center
Wed 04:11:26 PM 36.9161 -88.5172 217° Southwest 430 495 45,000  Level Memphis Center
Wed 04:12:26 PM 36.8214 -88.6050 217° Southwest 430 495 45,000  Level Memphis Center
Wed 04:13:26 PM 36.7289 -88.6950 218° Southwest 430 495 45,000  Level Memphis Center
Wed 04:14:26 PM 36.6342 -88.7847 217° Southwest 430 495 45,000  Level Memphis Center
Wed 04:15:26 PM 36.5417 -88.8692 216° Southwest 430 495 45,000  Level Memphis Center
Wed 04:16:26 PM 36.4467 -88.9586 217° Southwest 430 495 45,000  Level Memphis Center
Wed 04:17:26 PM 36.3619 -89.0350 216° Southwest 430 495 45,000  Level Memphis Center
Wed 04:18:26 PM 36.2628 -89.1239 216° Southwest 435 501 45,000  Level Memphis Center
Wed 04:19:26 PM 36.1678 -89.2156 218° Southwest 440 506 45,000  Level Memphis Center
Wed 04:20:26 PM 36.0728 -89.3067 218° Southwest 435 501 45,000  Level Memphis Center
Wed 04:21:26 PM 35.9797 -89.3925 217° Southwest 435 501 45,000  Level Memphis Center
Wed 04:22:26 PM 35.8864 -89.4808 217° Southwest 435 501 45,000  Level Memphis Center
Wed 04:23:26 PM 35.7933 -89.5689 218° Southwest 430 495 45,000  Level Memphis Center
Wed 04:24:26 PM 35.7000 -89.6539 216° Southwest 430 495 45,000  Level Memphis Center
Wed 04:25:26 PM 35.6044 -89.7442 218° Southwest 415 478 45,000  Level Memphis Center
Wed 04:26:26 PM 35.5111 -89.8342 218° Southwest 420 483 45,000  Level Memphis Center
Wed 04:27:26 PM 35.4175 -89.9189 216° Southwest 425 489 45,000  Level Memphis Center
Wed 04:28:26 PM 35.3239 -90.0058 217° Southwest 430 495 45,000  Level Memphis Center
Wed 04:29:27 PM 35.2281 -90.0953 217° Southwest 430 495 45,000  Level Memphis Center
Wed 04:30:26 PM 35.1325 -90.1819 217° Southwest 430 495 45,000  Level Memphis Center
Wed 04:31:26 PM 35.0386 -90.2658 216° Southwest 430 495 45,000  Level Memphis Center
Wed 04:32:26 PM 34.9406 -90.3544 217° Southwest 430 495 45,000  Level Memphis Center
Wed 04:33:26 PM 34.8447 -90.4406 216° Southwest 430 495 45,000  Level Memphis Center
Wed 04:34:26 PM 34.7569 -90.5139 214° Southwest 430 495 45,000  Level Memphis Center
Wed 04:35:26 PM 34.6567 -90.5944 213° Southwest 430 495 45,000  Level Memphis Center
Wed 04:36:26 PM 34.5542 -90.6750 213° Southwest 436 502 45,000  Level Memphis Center
Wed 04:37:26 PM 34.4539 -90.7550 213° Southwest 442 509 45,000  Level Memphis Center
Wed 04:38:26 PM 34.3533 -90.8350 213° Southwest 442 509 45,000  Level Memphis Center
Wed 04:39:26 PM 34.2508 -90.9175 214° Southwest 447 514 45,000  Level Memphis Center
Wed 04:40:26 PM 34.1481 -90.9972 213° Southwest 447 514 45,000  Level Memphis Center
Wed 04:41:26 PM 34.0456 -91.0792 214° Southwest 447 514 45,000  Level Memphis Center
Wed 04:42:26 PM 33.9342 -91.1683 214° Southwest 447 514 45,000  Level Memphis Center
Wed 04:43:26 PM 33.8336 -91.2525 215° Southwest 447 514 45,000  Level Memphis Center
Wed 04:44:26 PM 33.7264 -91.3314 211° Southwest 445 512 45,000  Level Memphis Center
Wed 04:45:26 PM 33.6256 -91.4100 213° Southwest 445 512 45,000  Level Memphis Center
Wed 04:47:11 PM 33.4683 -91.5372 214° Southwest 407 468 45,000  Level Fort Worth Center
Wed 04:48:11 PM 33.3572 -91.6192 212° Southwest 439 505 45,000  Level Fort Worth Center
Wed 04:49:11 PM 33.2567 -91.7003 214° Southwest 445 512 45,000  Level Fort Worth Center
Wed 04:50:11 PM 33.1397 -91.7897 213° Southwest 450 518 45,000  Level Fort Worth Center
Wed 04:51:11 PM 33.0489 -91.8600 213° Southwest 450 518 45,000  Level Fort Worth Center
Wed 04:52:11 PM 32.9397 -91.9408 212° Southwest 450 518 45,000  Level Fort Worth Center
Wed 04:53:11 PM 32.8347 -92.0214 213° Southwest 450 518 45,000  Level Fort Worth Center
Wed 04:54:11 PM 32.7297 -92.1019 213° Southwest 450 518 45,000  Level Fort Worth Center
Wed 04:56:16 PM 32.5122 -92.2703 213° Southwest 453 521 45,000  Level Houston Center
Wed 04:57:19 PM 32.4058 -92.3525 213° Southwest 459 528 45,000  Level Houston Center
Wed 04:58:21 PM 32.2778 -92.4486 212° Southwest 456 525 45,000  Level Houston Center
Wed 04:59:23 PM 32.1700 -92.5300 213° Southwest 460 529 45,000  Level Houston Center
Wed 05:00:25 PM 32.0628 -92.6103 212° Southwest 459 528 45,000  Level Houston Center
Wed 05:01:27 PM 31.9575 -92.6994 216° Southwest 468 539 45,000  Level Houston Center
Wed 05:02:29 PM 31.8694 -92.8092 227° Southwest 468 539 45,000 -97 Level Houston Center
Wed 05:03:31 PM 31.7656 -92.9425 228° Southwest 465 535 44,800 -581 Descending Houston Center
Wed 05:04:33 PM 31.6789 -93.0508 227° Southwest 459 528 43,800 -864 Descending Houston Center
Wed 05:05:36 PM 31.5967 -93.1561 227° Southwest 444 511 43,000 -384 Descending Houston Center
Wed 05:06:38 PM 31.5144 -93.2606 227° Southwest 438 504 43,000  Level Houston Center
Wed 05:07:40 PM 31.4183 -93.3814 227° Southwest 449 517 43,000 -387 Level Houston Center
Wed 05:08:42 PM 31.3331 -93.4872 227° Southwest 450 518 42,200 -1,984 Descending Houston Center
Wed 05:09:44 PM 31.2456 -93.5956 227° Southwest 435 501 38,900 -3,048 Descending Houston Center
Wed 05:10:46 PM 31.1722 -93.6894 228° Southwest 401 461 35,900 -2,903 Descending Houston Center
Wed 05:11:48 PM 31.0942 -93.7861 227° Southwest 410 472 32,900 -3,048 Descending Houston Center
Wed 05:12:50 PM 31.0036 -93.8961 226° Southwest 423 487 29,600 -2,952 Descending Houston Center
Wed 05:13:52 PM 30.9303 -93.9878 227° Southwest 435 501 26,800 -2,736 Descending Houston Center
Wed 05:14:55 PM 30.8417 -94.1194 232° Southwest 434 499 23,900 -2,544 Descending Houston Center
Wed 05:15:57 PM 30.7814 -94.2222 236° Southwest 413 475 21,500 -2,952 Descending Houston Center
Wed 05:16:59 PM 30.6997 -94.3142 224° Southwest 390 449 17,800 -3,339 Descending Houston Center
Wed 05:18:01 PM 30.6189 -94.3944 221° Southwest 384 442 14,600 -3,194 Descending Houston Center
Wed 05:19:03 PM 30.5364 -94.4750 220° Southwest 323 372 11,200 -2,177 Descending Houston Center
Wed 05:20:05 PM 30.4761 -94.5453 225° Southwest 319 367 10,100 -581 Descending Houston Center
Wed 05:21:07 PM 30.4169 -94.6394 234° Southwest 344 396 10,000 -384 Descending Houston Center
Wed 05:22:10 PM 30.3847 -94.7333 248° West 326 375 9,300 -1,200 Descending Houston Center
Wed 05:23:12 PM 30.4039 -94.8192 285° West 286 329 7,500 -1,839 Descending Houston Center
Wed 05:24:14 PM 30.4308 -94.9017 291° West 276 318 5,500 -1,790 Descending Houston Center
Wed 05:25:16 PM 30.4619 -95.0014 290° West 277 319 3,800 -1,161 Descending Houston Center
Wed 05:26:18 PM 30.4881 -95.0828 290° West 274 315 3,100 -339 Descending Houston Center
Wed 05:27:20 PM 30.5028 -95.1672 281° West 271 312 3,100  Level Houston Center
Wed 05:28:22 PM 30.5092 -95.2544 275° West 270 311 3,100 -145 Level Houston Center
Wed 05:29:24 PM 30.5100 -95.3436 271° West 280 322 2,800 -240 Descending Houston Center
Wed 05:30:27 PM 30.4814 -95.4214 247° West 269 310 2,600 -438 Descending Houston Center
Wed 05:31:41 PM 30.4156 -95.4628 208° Southwest 159 183 1,800 -629 Descending Houston Center
Wed 05:32:31 PM 30.3917 -95.4519 159° South 183 211 1,300 -600 Descending Houston Center

Login

Don't have an account? Register now (free) for customized features, flight alerts, and more!